Aérodrome :
LOGIN :

S'inscrire | Disclaimer

   EN    FR    IT 

 










Légende :    VFR   VFR Marginal   IFR   IFR Intensif   IFR Très Intensif
Visi : 
Plafond : 
>= 8 km
>= 3000ft
5 à 8 km
1000 à 3000 ft
1500m à 5 km
500 à 1000 ft
800 à 1500m
200 à 500 ft
< 800m
< 200 ft
Symboles :   Orages  Brouillard  Fortes neiges  Fortes précipitations  Vent > 20 kt
SIGMETs :   Divers  Orages  Givrage  Turbulence  Onde Orograph.  Cendres Volcan.






- Altitude de l'aérodrome : 16 ft
- Code IATA : SDR


LEXJ - Santander Cantabria

DERNIER METAR :
  • 250548Z 29023G33KT 260V320 6000 -SHRA FEW020 SCT035CB BKN045 13/10 Q1018 RETS

METARs EXPIRÉS :
  • 250530Z 29022G38KT 250V330 5000 TSRA FEW024 BKN035CB 13/10 Q1017
  • 250500Z 27020G32KT 6000 SHRA FEW024 BKN035TCU 13/10 Q1017
  • 250430Z 28022KT 250V320 9999 FEW024 SCT035TCU 12/10 Q1017 RESHRA
  • 250400Z 27019G31KT 230V300 9999 SHRA FEW020 BKN030TCU 13/10 Q1017
  • 250330Z 27019G31KT 230V300 9999 -RA FEW027 BKN040 13/10 Q1017
  • 250300Z AUTO 27018KT 230V290 9000 FEW039 SCT070 13/10 Q1017

TAF TAF LEXJ
Valide du 25 à 03h jusqu'au 26 à 03h UTC


250200Z 2503/2603 27015KT 9999 SCT030 BKN050 TX19/2514Z TN12/2506Z
TEMPO 2503/2521 28018G32KT
TEMPO 2503/2518 28025G43KT
TEMPO 2503/2509 3000 RA SHRA SCT030TCU
PROB30
TEMPO 2503/2509 TS SCT030CB
PROB40
TEMPO 2509/2603 RA
TEMPO 2521/2603 26015G25KT



MET'MAP, la Météo Aéronautique d'un coup d'oeil ! - Copyright ORBIFLY Décembre 2007 - Disclaimer

ORBIFLY MET'MAP TEAM :

Programmation & Développement : Alexandra Zaïnal
Sur une idée originale de : Baudouin d'Aumeries
Assistance à la programmation : Marc-Olivier Méhu
Soutien technique & logistique : Manuel Goepfert

Contact : metmap@orbifly.com




SOURCES & CREDITS :

   NOAA